sensor_id;sensor_type;location;lat;lon;timestamp;temperature;humidity
10175;DHT22;18221;38.704;0.152;2023-06-22T00:01:02;22.90;99.90
10175;DHT22;18221;38.704;0.152;2023-06-22T00:03:30;22.90;99.90
10175;DHT22;18221;38.704;0.152;2023-06-22T00:05:58;22.90;99.90
10175;DHT22;18221;38.704;0.152;2023-06-22T00:08:26;22.90;99.90
10175;DHT22;18221;38.704;0.152;2023-06-22T00:10:56;22.90;99.90
10175;DHT22;18221;38.704;0.152;2023-06-22T00:13:23;22.90;99.90
10175;DHT22;18221;38.704;0.152;2023-06-22T00:15:52;22.90;99.90
10175;DHT22;18221;38.704;0.152;2023-06-22T00:18:20;22.90;99.90
10175;DHT22;18221;38.704;0.152;2023-06-22T00:20:48;23.00;99.90
10175;DHT22;18221;38.704;0.152;2023-06-22T00:23:16;22.90;99.90
10175;DHT22;18221;38.704;0.152;2023-06-22T00:25:44;22.80;99.90
10175;DHT22;18221;38.704;0.152;2023-06-22T00:28:14;22.80;99.90
10175;DHT22;18221;38.704;0.152;2023-06-22T00:30:42;22.80;99.90
10175;DHT22;18221;38.704;0.152;2023-06-22T00:33:10;22.80;99.90
10175;DHT22;18221;38.704;0.152;2023-06-22T00:35:37;22.80;99.90
10175;DHT22;18221;38.704;0.152;2023-06-22T00:38:07;22.70;99.90
10175;DHT22;18221;38.704;0.152;2023-06-22T00:40:35;22.70;99.90
10175;DHT22;18221;38.704;0.152;2023-06-22T00:43:03;22.70;99.90
10175;DHT22;18221;38.704;0.152;2023-06-22T00:45:34;22.70;99.90
10175;DHT22;18221;38.704;0.152;2023-06-22T00:48:02;22.70;99.90
10175;DHT22;18221;38.704;0.152;2023-06-22T00:50:33;20.80;99.90
10175;DHT22;18221;38.704;0.152;2023-06-22T00:53:03;22.70;99.90
10175;DHT22;18221;38.704;0.152;2023-06-22T00:55:35;22.70;99.90
10175;DHT22;18221;38.704;0.152;2023-06-22T00:58:05;22.60;99.90
10175;DHT22;18221;38.704;0.152;2023-06-22T01:00:38;22.50;99.90
10175;DHT22;18221;38.704;0.152;2023-06-22T01:03:07;22.50;99.90
10175;DHT22;18221;38.704;0.152;2023-06-22T01:05:36;22.50;99.90
10175;DHT22;18221;38.704;0.152;2023-06-22T01:08:13;22.40;99.90
10175;DHT22;18221;38.704;0.152;2023-06-22T01:10:53;22.40;99.90
10175;DHT22;18221;38.704;0.152;2023-06-22T01:13:31;22.40;99.90
10175;DHT22;18221;38.704;0.152;2023-06-22T01:16:10;22.40;99.90
10175;DHT22;18221;38.704;0.152;2023-06-22T01:18:43;22.40;99.90
10175;DHT22;18221;38.704;0.152;2023-06-22T01:21:16;22.30;99.90
10175;DHT22;18221;38.704;0.152;2023-06-22T01:23:56;22.30;99.90
10175;DHT22;18221;38.704;0.152;2023-06-22T01:26:41;22.30;99.90
10175;DHT22;18221;38.704;0.152;2023-06-22T01:29:21;22.20;99.90
10175;DHT22;18221;38.704;0.152;2023-06-22T01:31:52;22.20;99.90
10175;DHT22;18221;38.704;0.152;2023-06-22T01:34:24;22.20;99.90
10175;DHT22;18221;38.704;0.152;2023-06-22T01:36:52;22.20;99.90
10175;DHT22;18221;38.704;0.152;2023-06-22T01:39:22;22.10;99.90
10175;DHT22;18221;38.704;0.152;2023-06-22T01:41:50;22.10;99.90
10175;DHT22;18221;38.704;0.152;2023-06-22T01:44:21;22.10;99.90
10175;DHT22;18221;38.704;0.152;2023-06-22T01:46:50;22.20;99.90
10175;DHT22;18221;38.704;0.152;2023-06-22T01:49:19;22.20;99.90
10175;DHT22;18221;38.704;0.152;2023-06-22T01:51:47;22.20;99.90
10175;DHT22;18221;38.704;0.152;2023-06-22T01:54:15;22.20;99.90
10175;DHT22;18221;38.704;0.152;2023-06-22T01:56:43;22.20;99.90
10175;DHT22;18221;38.704;0.152;2023-06-22T01:59:15;22.20;99.90
10175;DHT22;18221;38.704;0.152;2023-06-22T02:01:54;22.30;99.90
10175;DHT22;18221;38.704;0.152;2023-06-22T02:04:29;22.30;99.90
10175;DHT22;18221;38.704;0.152;2023-06-22T02:07:02;22.30;99.90
10175;DHT22;18221;38.704;0.152;2023-06-22T02:09:35;22.40;99.90
10175;DHT22;18221;38.704;0.152;2023-06-22T02:12:07;22.40;99.90
10175;DHT22;18221;38.704;0.152;2023-06-22T02:14:39;22.40;99.90
10175;DHT22;18221;38.704;0.152;2023-06-22T02:17:10;22.40;99.90
10175;DHT22;18221;38.704;0.152;2023-06-22T02:19:41;22.40;99.90
10175;DHT22;18221;38.704;0.152;2023-06-22T02:22:09;22.40;99.90
10175;DHT22;18221;38.704;0.152;2023-06-22T02:24:38;22.50;99.90
10175;DHT22;18221;38.704;0.152;2023-06-22T02:27:06;22.50;99.90
10175;DHT22;18221;38.704;0.152;2023-06-22T02:29:34;22.40;99.90
10175;DHT22;18221;38.704;0.152;2023-06-22T02:32:03;22.40;99.90
10175;DHT22;18221;38.704;0.152;2023-06-22T02:34:33;22.50;99.90
10175;DHT22;18221;38.704;0.152;2023-06-22T02:37:02;22.40;99.90
10175;DHT22;18221;38.704;0.152;2023-06-22T02:39:31;22.40;99.90
10175;DHT22;18221;38.704;0.152;2023-06-22T02:41:59;22.40;99.90
10175;DHT22;18221;38.704;0.152;2023-06-22T02:44:27;22.50;99.90
10175;DHT22;18221;38.704;0.152;2023-06-22T02:46:55;22.40;99.90
10175;DHT22;18221;38.704;0.152;2023-06-22T02:49:24;22.40;99.90
10175;DHT22;18221;38.704;0.152;2023-06-22T02:51:53;22.40;99.90
10175;DHT22;18221;38.704;0.152;2023-06-22T02:54:21;22.40;99.90
10175;DHT22;18221;38.704;0.152;2023-06-22T02:56:49;22.40;99.90
10175;DHT22;18221;38.704;0.152;2023-06-22T02:59:17;22.40;99.90
10175;DHT22;18221;38.704;0.152;2023-06-22T03:01:49;22.40;99.90
10175;DHT22;18221;38.704;0.152;2023-06-22T03:04:17;22.30;99.90
10175;DHT22;18221;38.704;0.152;2023-06-22T03:06:45;22.40;99.90
10175;DHT22;18221;38.704;0.152;2023-06-22T03:09:18;22.40;99.90
10175;DHT22;18221;38.704;0.152;2023-06-22T03:11:47;22.30;99.90
10175;DHT22;18221;38.704;0.152;2023-06-22T03:14:15;22.30;99.90
10175;DHT22;18221;38.704;0.152;2023-06-22T03:16:43;22.30;99.90
10175;DHT22;18221;38.704;0.152;2023-06-22T03:19:11;22.30;99.90
10175;DHT22;18221;38.704;0.152;2023-06-22T03:21:40;22.30;99.90
10175;DHT22;18221;38.704;0.152;2023-06-22T03:24:08;22.30;99.90
10175;DHT22;18221;38.704;0.152;2023-06-22T03:26:37;22.30;99.90
10175;DHT22;18221;38.704;0.152;2023-06-22T03:29:05;22.30;99.90
10175;DHT22;18221;38.704;0.152;2023-06-22T03:31:33;22.30;99.90
10175;DHT22;18221;38.704;0.152;2023-06-22T03:34:01;22.20;99.90
10175;DHT22;18221;38.704;0.152;2023-06-22T03:36:29;22.30;99.90
10175;DHT22;18221;38.704;0.152;2023-06-22T03:38:57;22.20;99.90
10175;DHT22;18221;38.704;0.152;2023-06-22T03:41:25;22.30;99.90
10175;DHT22;18221;38.704;0.152;2023-06-22T03:43:54;22.30;99.90
10175;DHT22;18221;38.704;0.152;2023-06-22T03:46:22;22.30;99.90
10175;DHT22;18221;38.704;0.152;2023-06-22T03:48:50;22.30;99.90
10175;DHT22;18221;38.704;0.152;2023-06-22T03:51:18;22.30;99.90
10175;DHT22;18221;38.704;0.152;2023-06-22T03:53:46;22.30;99.90
10175;DHT22;18221;38.704;0.152;2023-06-22T03:56:15;22.40;99.90
10175;DHT22;18221;38.704;0.152;2023-06-22T03:58:46;22.40;99.90
10175;DHT22;18221;38.704;0.152;2023-06-22T04:01:15;22.40;99.90
10175;DHT22;18221;38.704;0.152;2023-06-22T04:03:44;22.40;99.90
10175;DHT22;18221;38.704;0.152;2023-06-22T04:06:14;22.40;99.90
10175;DHT22;18221;38.704;0.152;2023-06-22T04:08:41;22.40;99.90
10175;DHT22;18221;38.704;0.152;2023-06-22T04:11:09;22.40;99.90
10175;DHT22;18221;38.704;0.152;2023-06-22T04:13:37;22.40;99.90
10175;DHT22;18221;38.704;0.152;2023-06-22T04:16:05;22.40;99.90
10175;DHT22;18221;38.704;0.152;2023-06-22T04:18:35;22.30;99.90
10175;DHT22;18221;38.704;0.152;2023-06-22T04:21:03;20.90;99.90
10175;DHT22;18221;38.704;0.152;2023-06-22T04:23:32;22.30;99.90
10175;DHT22;18221;38.704;0.152;2023-06-22T04:26:00;22.30;99.90
10175;DHT22;18221;38.704;0.152;2023-06-22T04:28:28;22.30;99.90
10175;DHT22;18221;38.704;0.152;2023-06-22T04:31:01;22.30;99.90
10175;DHT22;18221;38.704;0.152;2023-06-22T04:33:29;22.20;99.90
10175;DHT22;18221;38.704;0.152;2023-06-22T04:35:58;22.20;99.90
10175;DHT22;18221;38.704;0.152;2023-06-22T04:38:27;22.10;99.90
10175;DHT22;18221;38.704;0.152;2023-06-22T04:40:59;22.20;99.90
10175;DHT22;18221;38.704;0.152;2023-06-22T04:43:28;22.20;99.90
10175;DHT22;18221;38.704;0.152;2023-06-22T04:45:56;22.10;99.90
10175;DHT22;18221;38.704;0.152;2023-06-22T04:48:29;22.10;99.90
10175;DHT22;18221;38.704;0.152;2023-06-22T04:51:01;22.20;99.90
10175;DHT22;18221;38.704;0.152;2023-06-22T04:53:30;22.10;99.90
10175;DHT22;18221;38.704;0.152;2023-06-22T04:55:59;22.20;99.90
10175;DHT22;18221;38.704;0.152;2023-06-22T04:58:26;22.20;99.90
10175;DHT22;18221;38.704;0.152;2023-06-22T05:00:58;22.20;99.90
10175;DHT22;18221;38.704;0.152;2023-06-22T05:03:26;22.20;99.90
10175;DHT22;18221;38.704;0.152;2023-06-22T05:05:54;22.20;99.90
10175;DHT22;18221;38.704;0.152;2023-06-22T05:08:24;22.20;99.90
10175;DHT22;18221;38.704;0.152;2023-06-22T05:10:54;22.20;99.90
10175;DHT22;18221;38.704;0.152;2023-06-22T05:13:22;22.10;99.90
10175;DHT22;18221;38.704;0.152;2023-06-22T05:15:52;22.20;99.90
10175;DHT22;18221;38.704;0.152;2023-06-22T05:18:27;22.10;99.90
10175;DHT22;18221;38.704;0.152;2023-06-22T05:20:57;22.10;99.90
10175;DHT22;18221;38.704;0.152;2023-06-22T05:23:28;22.10;99.90
10175;DHT22;18221;38.704;0.152;2023-06-22T05:25:56;22.10;99.90
10175;DHT22;18221;38.704;0.152;2023-06-22T05:28:24;22.20;99.90
10175;DHT22;18221;38.704;0.152;2023-06-22T05:30:52;22.20;99.90
10175;DHT22;18221;38.704;0.152;2023-06-22T05:33:20;22.10;99.90
10175;DHT22;18221;38.704;0.152;2023-06-22T05:35:48;22.10;99.90
10175;DHT22;18221;38.704;0.152;2023-06-22T05:38:16;22.20;99.90
10175;DHT22;18221;38.704;0.152;2023-06-22T05:40:46;22.20;99.90
10175;DHT22;18221;38.704;0.152;2023-06-22T05:43:14;22.20;99.90
10175;DHT22;18221;38.704;0.152;2023-06-22T05:45:42;22.30;99.90
10175;DHT22;18221;38.704;0.152;2023-06-22T05:48:10;22.30;99.90
10175;DHT22;18221;38.704;0.152;2023-06-22T05:50:38;22.30;99.90
10175;DHT22;18221;38.704;0.152;2023-06-22T05:53:06;22.30;99.90
10175;DHT22;18221;38.704;0.152;2023-06-22T05:55:34;22.30;99.90
10175;DHT22;18221;38.704;0.152;2023-06-22T05:58:03;22.30;99.90
10175;DHT22;18221;38.704;0.152;2023-06-22T06:00:31;22.30;99.90
10175;DHT22;18221;38.704;0.152;2023-06-22T06:02:59;22.40;99.90
10175;DHT22;18221;38.704;0.152;2023-06-22T06:05:29;22.40;99.90
10175;DHT22;18221;38.704;0.152;2023-06-22T06:07:57;22.40;99.90
10175;DHT22;18221;38.704;0.152;2023-06-22T06:10:25;22.50;99.90
10175;DHT22;18221;38.704;0.152;2023-06-22T06:12:53;22.50;99.90
10175;DHT22;18221;38.704;0.152;2023-06-22T06:15:23;22.60;99.90
10175;DHT22;18221;38.704;0.152;2023-06-22T06:17:52;22.60;99.90
10175;DHT22;18221;38.704;0.152;2023-06-22T06:20:22;22.60;99.90
10175;DHT22;18221;38.704;0.152;2023-06-22T06:22:52;22.70;99.90
10175;DHT22;18221;38.704;0.152;2023-06-22T06:25:19;22.70;99.90
10175;DHT22;18221;38.704;0.152;2023-06-22T06:27:49;22.70;99.90
10175;DHT22;18221;38.704;0.152;2023-06-22T06:30:18;22.80;99.90
10175;DHT22;18221;38.704;0.152;2023-06-22T06:32:51;22.80;99.90
10175;DHT22;18221;38.704;0.152;2023-06-22T06:35:19;22.90;99.90
10175;DHT22;18221;38.704;0.152;2023-06-22T06:37:49;22.90;99.90
10175;DHT22;18221;38.704;0.152;2023-06-22T06:40:18;23.00;99.90
10175;DHT22;18221;38.704;0.152;2023-06-22T06:42:47;23.10;99.90
10175;DHT22;18221;38.704;0.152;2023-06-22T06:45:17;23.10;99.90
10175;DHT22;18221;38.704;0.152;2023-06-22T06:47:46;23.10;99.90
10175;DHT22;18221;38.704;0.152;2023-06-22T06:50:16;23.10;99.90
10175;DHT22;18221;38.704;0.152;2023-06-22T06:52:44;23.20;99.90
10175;DHT22;18221;38.704;0.152;2023-06-22T06:55:13;23.30;99.90
10175;DHT22;18221;38.704;0.152;2023-06-22T06:57:41;23.30;99.90
10175;DHT22;18221;38.704;0.152;2023-06-22T07:00:11;23.40;99.90
10175;DHT22;18221;38.704;0.152;2023-06-22T07:02:42;23.50;99.90
10175;DHT22;18221;38.704;0.152;2023-06-22T07:05:11;23.50;99.90
10175;DHT22;18221;38.704;0.152;2023-06-22T07:07:41;23.50;99.90
10175;DHT22;18221;38.704;0.152;2023-06-22T07:10:10;23.50;99.90
10175;DHT22;18221;38.704;0.152;2023-06-22T07:12:40;23.60;99.90
10175;DHT22;18221;38.704;0.152;2023-06-22T07:15:09;23.60;99.90
10175;DHT22;18221;38.704;0.152;2023-06-22T07:17:39;23.70;99.90
10175;DHT22;18221;38.704;0.152;2023-06-22T07:20:08;23.70;99.90
10175;DHT22;18221;38.704;0.152;2023-06-22T07:22:38;23.80;99.90
10175;DHT22;18221;38.704;0.152;2023-06-22T07:25:08;23.80;99.90
10175;DHT22;18221;38.704;0.152;2023-06-22T07:27:43;23.80;99.90
10175;DHT22;18221;38.704;0.152;2023-06-22T07:30:13;23.90;99.90
10175;DHT22;18221;38.704;0.152;2023-06-22T07:32:41;24.00;99.90
10175;DHT22;18221;38.704;0.152;2023-06-22T07:35:09;24.00;99.90
10175;DHT22;18221;38.704;0.152;2023-06-22T07:37:37;24.00;99.90
10175;DHT22;18221;38.704;0.152;2023-06-22T07:40:08;24.10;99.90
10175;DHT22;18221;38.704;0.152;2023-06-22T07:42:37;24.20;99.90
10175;DHT22;18221;38.704;0.152;2023-06-22T07:45:06;24.90;99.90
10175;DHT22;18221;38.704;0.152;2023-06-22T07:47:35;24.30;99.90
10175;DHT22;18221;38.704;0.152;2023-06-22T07:50:04;24.30;99.90
10175;DHT22;18221;38.704;0.152;2023-06-22T07:52:32;24.30;99.90
10175;DHT22;18221;38.704;0.152;2023-06-22T07:55:01;24.50;99.90
10175;DHT22;18221;38.704;0.152;2023-06-22T07:57:30;24.50;99.90
10175;DHT22;18221;38.704;0.152;2023-06-22T08:00:04;24.70;99.90
10175;DHT22;18221;38.704;0.152;2023-06-22T08:02:40;24.80;99.90
10175;DHT22;18221;38.704;0.152;2023-06-22T08:05:10;24.80;99.90
10175;DHT22;18221;38.704;0.152;2023-06-22T08:07:38;25.00;99.90
10175;DHT22;18221;38.704;0.152;2023-06-22T08:10:10;25.10;99.90
10175;DHT22;18221;38.704;0.152;2023-06-22T08:12:40;25.20;99.90
10175;DHT22;18221;38.704;0.152;2023-06-22T08:15:09;25.40;99.90
10175;DHT22;18221;38.704;0.152;2023-06-22T08:17:37;25.50;99.90
10175;DHT22;18221;38.704;0.152;2023-06-22T08:20:06;25.70;99.90
10175;DHT22;18221;38.704;0.152;2023-06-22T08:22:37;25.70;99.90
10175;DHT22;18221;38.704;0.152;2023-06-22T08:25:06;25.90;99.90
10175;DHT22;18221;38.704;0.152;2023-06-22T08:27:35;26.00;99.90
10175;DHT22;18221;38.704;0.152;2023-06-22T08:30:06;26.10;99.90
10175;DHT22;18221;38.704;0.152;2023-06-22T08:32:36;26.20;99.90
10175;DHT22;18221;38.704;0.152;2023-06-22T08:35:05;26.30;99.90
10175;DHT22;18221;38.704;0.152;2023-06-22T08:37:34;26.40;99.90
10175;DHT22;18221;38.704;0.152;2023-06-22T08:40:03;26.60;99.90
10175;DHT22;18221;38.704;0.152;2023-06-22T08:42:35;26.70;99.90
10175;DHT22;18221;38.704;0.152;2023-06-22T08:45:06;26.80;99.90
10175;DHT22;18221;38.704;0.152;2023-06-22T08:47:35;26.70;99.90
10175;DHT22;18221;38.704;0.152;2023-06-22T08:50:05;27.10;99.90
10175;DHT22;18221;38.704;0.152;2023-06-22T08:52:34;27.20;99.90
10175;DHT22;18221;38.704;0.152;2023-06-22T08:55:08;27.40;99.90
10175;DHT22;18221;38.704;0.152;2023-06-22T08:57:37;27.60;99.90
10175;DHT22;18221;38.704;0.152;2023-06-22T09:00:09;27.90;99.90
10175;DHT22;18221;38.704;0.152;2023-06-22T09:02:44;28.10;99.90
10175;DHT22;18221;38.704;0.152;2023-06-22T09:05:13;28.10;99.90
10175;DHT22;18221;38.704;0.152;2023-06-22T09:07:42;28.00;99.90
10175;DHT22;18221;38.704;0.152;2023-06-22T09:10:10;27.70;99.90
10175;DHT22;18221;38.704;0.152;2023-06-22T09:12:39;27.50;99.90
10175;DHT22;18221;38.704;0.152;2023-06-22T09:15:10;27.40;99.90
10175;DHT22;18221;38.704;0.152;2023-06-22T09:17:38;27.30;99.90
10175;DHT22;18221;38.704;0.152;2023-06-22T09:20:14;27.20;99.90
10175;DHT22;18221;38.704;0.152;2023-06-22T09:22:42;27.10;99.90
10175;DHT22;18221;38.704;0.152;2023-06-22T09:25:10;26.80;99.90
10175;DHT22;18221;38.704;0.152;2023-06-22T09:27:38;26.60;99.90
10175;DHT22;18221;38.704;0.152;2023-06-22T09:30:09;26.50;99.90
10175;DHT22;18221;38.704;0.152;2023-06-22T09:32:37;26.60;99.90
10175;DHT22;18221;38.704;0.152;2023-06-22T09:35:06;26.60;99.90
10175;DHT22;18221;38.704;0.152;2023-06-22T09:37:35;26.60;99.90
10175;DHT22;18221;38.704;0.152;2023-06-22T09:40:04;26.60;99.90
10175;DHT22;18221;38.704;0.152;2023-06-22T09:42:36;26.70;99.90
10175;DHT22;18221;38.704;0.152;2023-06-22T09:45:05;26.70;99.90
10175;DHT22;18221;38.704;0.152;2023-06-22T09:47:35;26.70;99.90
10175;DHT22;18221;38.704;0.152;2023-06-22T09:50:04;27.10;99.90
10175;DHT22;18221;38.704;0.152;2023-06-22T09:52:33;26.80;99.90
10175;DHT22;18221;38.704;0.152;2023-06-22T09:55:01;26.80;99.90
10175;DHT22;18221;38.704;0.152;2023-06-22T09:57:30;26.90;99.90
10175;DHT22;18221;38.704;0.152;2023-06-22T09:59:58;26.90;99.90
10175;DHT22;18221;38.704;0.152;2023-06-22T10:02:26;27.00;99.90
10175;DHT22;18221;38.704;0.152;2023-06-22T10:04:55;26.80;99.90
10175;DHT22;18221;38.704;0.152;2023-06-22T10:07:23;26.80;99.90
10175;DHT22;18221;38.704;0.152;2023-06-22T10:09:51;26.90;99.90
10175;DHT22;18221;38.704;0.152;2023-06-22T10:12:19;26.80;99.90
10175;DHT22;18221;38.704;0.152;2023-06-22T10:14:47;26.90;99.90
10175;DHT22;18221;38.704;0.152;2023-06-22T10:17:15;26.90;99.90
10175;DHT22;18221;38.704;0.152;2023-06-22T10:19:43;26.80;99.90
10175;DHT22;18221;38.704;0.152;2023-06-22T10:22:12;26.80;99.90
10175;DHT22;18221;38.704;0.152;2023-06-22T10:24:40;26.90;99.90
10175;DHT22;18221;38.704;0.152;2023-06-22T10:27:10;27.00;99.90
10175;DHT22;18221;38.704;0.152;2023-06-22T10:29:38;27.10;99.90
10175;DHT22;18221;38.704;0.152;2023-06-22T10:32:07;27.00;99.90
10175;DHT22;18221;38.704;0.152;2023-06-22T10:34:35;27.00;99.90
10175;DHT22;18221;38.704;0.152;2023-06-22T10:37:04;27.00;99.90
10175;DHT22;18221;38.704;0.152;2023-06-22T10:39:34;27.00;99.90
10175;DHT22;18221;38.704;0.152;2023-06-22T10:42:02;26.90;99.90
10175;DHT22;18221;38.704;0.152;2023-06-22T10:44:30;27.00;99.90
10175;DHT22;18221;38.704;0.152;2023-06-22T10:46:58;27.00;99.90
10175;DHT22;18221;38.704;0.152;2023-06-22T10:49:26;27.00;99.90
10175;DHT22;18221;38.704;0.152;2023-06-22T10:51:54;27.10;99.90
10175;DHT22;18221;38.704;0.152;2023-06-22T10:54:22;27.00;99.90
10175;DHT22;18221;38.704;0.152;2023-06-22T10:56:52;27.00;99.90
10175;DHT22;18221;38.704;0.152;2023-06-22T10:59:20;27.00;99.90
10175;DHT22;18221;38.704;0.152;2023-06-22T11:01:49;27.00;99.90
10175;DHT22;18221;38.704;0.152;2023-06-22T11:04:17;27.00;99.90
10175;DHT22;18221;38.704;0.152;2023-06-22T11:06:46;27.10;99.90
10175;DHT22;18221;38.704;0.152;2023-06-22T11:09:15;27.10;99.90
10175;DHT22;18221;38.704;0.152;2023-06-22T11:11:46;27.20;99.90
10175;DHT22;18221;38.704;0.152;2023-06-22T11:14:15;27.20;99.90
10175;DHT22;18221;38.704;0.152;2023-06-22T11:16:43;27.20;99.90
10175;DHT22;18221;38.704;0.152;2023-06-22T11:19:12;27.30;99.90
10175;DHT22;18221;38.704;0.152;2023-06-22T11:21:40;27.40;99.90
10175;DHT22;18221;38.704;0.152;2023-06-22T11:24:08;27.30;99.90
10175;DHT22;18221;38.704;0.152;2023-06-22T11:26:36;27.40;99.90
10175;DHT22;18221;38.704;0.152;2023-06-22T11:29:05;27.40;99.90
10175;DHT22;18221;38.704;0.152;2023-06-22T11:31:35;27.40;99.90
10175;DHT22;18221;38.704;0.152;2023-06-22T11:34:04;27.50;99.90
10175;DHT22;18221;38.704;0.152;2023-06-22T11:36:32;27.50;99.90
10175;DHT22;18221;38.704;0.152;2023-06-22T11:39:01;27.40;99.90
10175;DHT22;18221;38.704;0.152;2023-06-22T11:41:29;27.40;99.90
10175;DHT22;18221;38.704;0.152;2023-06-22T11:43:57;27.50;99.90
10175;DHT22;18221;38.704;0.152;2023-06-22T11:46:25;27.50;99.90
10175;DHT22;18221;38.704;0.152;2023-06-22T11:48:56;27.60;99.90
10175;DHT22;18221;38.704;0.152;2023-06-22T11:51:24;27.60;99.90
10175;DHT22;18221;38.704;0.152;2023-06-22T11:53:53;28.30;99.90
10175;DHT22;18221;38.704;0.152;2023-06-22T11:56:21;27.70;99.90
10175;DHT22;18221;38.704;0.152;2023-06-22T11:58:49;27.70;99.90
10175;DHT22;18221;38.704;0.152;2023-06-22T12:01:17;27.80;99.90
10175;DHT22;18221;38.704;0.152;2023-06-22T12:03:45;27.90;99.90
10175;DHT22;18221;38.704;0.152;2023-06-22T12:06:15;28.00;99.90
10175;DHT22;18221;38.704;0.152;2023-06-22T12:08:43;28.10;99.90
10175;DHT22;18221;38.704;0.152;2023-06-22T12:11:11;28.10;99.90
10175;DHT22;18221;38.704;0.152;2023-06-22T12:13:39;28.10;99.90
10175;DHT22;18221;38.704;0.152;2023-06-22T12:16:07;28.10;99.90
10175;DHT22;18221;38.704;0.152;2023-06-22T12:18:35;28.10;99.90
10175;DHT22;18221;38.704;0.152;2023-06-22T12:21:05;28.10;99.90
10175;DHT22;18221;38.704;0.152;2023-06-22T12:23:35;28.20;99.90
10175;DHT22;18221;38.704;0.152;2023-06-22T12:26:03;28.20;99.90
10175;DHT22;18221;38.704;0.152;2023-06-22T12:28:31;28.20;99.90
10175;DHT22;18221;38.704;0.152;2023-06-22T12:30:59;28.30;99.90
10175;DHT22;18221;38.704;0.152;2023-06-22T12:33:26;28.30;99.90
10175;DHT22;18221;38.704;0.152;2023-06-22T12:35:56;28.30;99.90
10175;DHT22;18221;38.704;0.152;2023-06-22T12:38:24;28.40;99.90
10175;DHT22;18221;38.704;0.152;2023-06-22T12:40:53;28.40;99.90
10175;DHT22;18221;38.704;0.152;2023-06-22T12:43:21;28.40;99.90
10175;DHT22;18221;38.704;0.152;2023-06-22T12:45:49;28.50;99.90
10175;DHT22;18221;38.704;0.152;2023-06-22T12:48:17;28.50;99.90
10175;DHT22;18221;38.704;0.152;2023-06-22T12:50:46;28.50;99.90
10175;DHT22;18221;38.704;0.152;2023-06-22T12:53:14;28.50;99.90
10175;DHT22;18221;38.704;0.152;2023-06-22T12:55:42;28.70;99.90
10175;DHT22;18221;38.704;0.152;2023-06-22T12:58:11;28.80;99.90
10175;DHT22;18221;38.704;0.152;2023-06-22T13:00:39;28.80;99.90
10175;DHT22;18221;38.704;0.152;2023-06-22T13:03:07;28.80;99.90
10175;DHT22;18221;38.704;0.152;2023-06-22T13:05:35;29.00;99.90
10175;DHT22;18221;38.704;0.152;2023-06-22T13:08:03;29.00;99.90
10175;DHT22;18221;38.704;0.152;2023-06-22T13:10:31;29.00;99.90
10175;DHT22;18221;38.704;0.152;2023-06-22T13:12:59;29.10;99.90
10175;DHT22;18221;38.704;0.152;2023-06-22T13:15:29;29.10;99.90
10175;DHT22;18221;38.704;0.152;2023-06-22T13:17:57;29.20;99.90
10175;DHT22;18221;38.704;0.152;2023-06-22T13:20:24;29.20;99.90
10175;DHT22;18221;38.704;0.152;2023-06-22T13:22:54;29.30;99.90
10175;DHT22;18221;38.704;0.152;2023-06-22T13:25:22;29.30;99.90
10175;DHT22;18221;38.704;0.152;2023-06-22T13:27:52;29.60;99.90
10175;DHT22;18221;38.704;0.152;2023-06-22T13:30:20;29.40;99.90
10175;DHT22;18221;38.704;0.152;2023-06-22T13:32:51;29.30;99.90
10175;DHT22;18221;38.704;0.152;2023-06-22T13:35:19;29.30;99.90
10175;DHT22;18221;38.704;0.152;2023-06-22T13:37:47;29.30;99.90
10175;DHT22;18221;38.704;0.152;2023-06-22T13:40:15;29.50;99.90
10175;DHT22;18221;38.704;0.152;2023-06-22T13:42:43;29.60;99.90
10175;DHT22;18221;38.704;0.152;2023-06-22T13:45:11;29.60;99.90
10175;DHT22;18221;38.704;0.152;2023-06-22T13:47:45;29.80;99.90
10175;DHT22;18221;38.704;0.152;2023-06-22T13:50:17;29.80;99.90
10175;DHT22;18221;38.704;0.152;2023-06-22T13:52:46;29.90;99.90
10175;DHT22;18221;38.704;0.152;2023-06-22T13:55:14;30.10;99.90
10175;DHT22;18221;38.704;0.152;2023-06-22T13:57:43;30.10;99.90
10175;DHT22;18221;38.704;0.152;2023-06-22T14:00:12;30.00;99.90
10175;DHT22;18221;38.704;0.152;2023-06-22T14:02:40;29.90;99.90
10175;DHT22;18221;38.704;0.152;2023-06-22T14:05:09;29.60;99.90
10175;DHT22;18221;38.704;0.152;2023-06-22T14:07:38;29.50;99.90
10175;DHT22;18221;38.704;0.152;2023-06-22T14:10:06;29.40;99.90
10175;DHT22;18221;38.704;0.152;2023-06-22T14:12:35;29.30;99.90
10175;DHT22;18221;38.704;0.152;2023-06-22T14:15:03;29.20;99.90
10175;DHT22;18221;38.704;0.152;2023-06-22T14:17:32;29.10;99.90
10175;DHT22;18221;38.704;0.152;2023-06-22T14:20:00;29.10;99.90
10175;DHT22;18221;38.704;0.152;2023-06-22T14:22:31;29.00;99.90
10175;DHT22;18221;38.704;0.152;2023-06-22T14:25:05;29.00;99.90
10175;DHT22;18221;38.704;0.152;2023-06-22T14:27:34;29.10;99.90
10175;DHT22;18221;38.704;0.152;2023-06-22T14:30:02;29.10;99.90
10175;DHT22;18221;38.704;0.152;2023-06-22T14:32:30;29.00;99.90
10175;DHT22;18221;38.704;0.152;2023-06-22T14:34:58;29.10;99.90
10175;DHT22;18221;38.704;0.152;2023-06-22T14:37:26;29.10;99.90
10175;DHT22;18221;38.704;0.152;2023-06-22T14:39:53;29.10;99.90
10175;DHT22;18221;38.704;0.152;2023-06-22T14:42:23;29.10;99.90
10175;DHT22;18221;38.704;0.152;2023-06-22T14:44:52;29.10;99.90
10175;DHT22;18221;38.704;0.152;2023-06-22T14:47:20;29.10;99.90
10175;DHT22;18221;38.704;0.152;2023-06-22T14:49:48;29.10;99.90
10175;DHT22;18221;38.704;0.152;2023-06-22T14:52:16;29.10;99.90
10175;DHT22;18221;38.704;0.152;2023-06-22T14:54:44;29.10;99.90
10175;DHT22;18221;38.704;0.152;2023-06-22T14:57:12;29.20;99.90
10175;DHT22;18221;38.704;0.152;2023-06-22T14:59:45;29.20;99.90
10175;DHT22;18221;38.704;0.152;2023-06-22T15:02:14;29.20;99.90
10175;DHT22;18221;38.704;0.152;2023-06-22T15:04:42;29.30;99.90
10175;DHT22;18221;38.704;0.152;2023-06-22T15:07:10;29.30;99.90
10175;DHT22;18221;38.704;0.152;2023-06-22T15:09:38;29.20;99.90
10175;DHT22;18221;38.704;0.152;2023-06-22T15:12:11;29.20;99.90
10175;DHT22;18221;38.704;0.152;2023-06-22T15:14:40;29.20;99.90
10175;DHT22;18221;38.704;0.152;2023-06-22T15:17:10;29.20;99.90
10175;DHT22;18221;38.704;0.152;2023-06-22T15:19:40;29.20;99.90
10175;DHT22;18221;38.704;0.152;2023-06-22T15:22:08;29.20;99.90
10175;DHT22;18221;38.704;0.152;2023-06-22T15:24:36;29.20;99.90
10175;DHT22;18221;38.704;0.152;2023-06-22T15:27:04;29.30;99.90
10175;DHT22;18221;38.704;0.152;2023-06-22T15:29:32;29.30;99.90
10175;DHT22;18221;38.704;0.152;2023-06-22T15:32:01;29.30;99.90
10175;DHT22;18221;38.704;0.152;2023-06-22T15:34:30;29.30;99.90
10175;DHT22;18221;38.704;0.152;2023-06-22T15:37:00;29.30;99.90
10175;DHT22;18221;38.704;0.152;2023-06-22T15:39:27;29.30;99.90
10175;DHT22;18221;38.704;0.152;2023-06-22T15:41:57;29.30;99.90